createdAt,value
2023-04-16T00:00:22.767Z,74.39
2023-04-16T00:01:26.935Z,74.43
2023-04-16T00:02:30.536Z,74.39
2023-04-16T00:03:34.816Z,74.41
2023-04-16T00:04:37.449Z,74.38
2023-04-16T00:05:42.016Z,74.42
2023-04-16T00:06:46.230Z,74.38
2023-04-16T00:07:49.656Z,74.38
2023-04-16T00:08:53.155Z,74.40
2023-04-16T00:09:55.417Z,74.43
2023-04-16T00:10:57.704Z,74.46
2023-04-16T00:12:00.253Z,74.48
2023-04-16T00:13:03.272Z,74.52
2023-04-16T00:14:08.453Z,74.54
2023-04-16T00:15:12.845Z,74.56
2023-04-16T00:16:18.379Z,74.55
2023-04-16T00:17:27.953Z,74.50
2023-04-16T00:18:30.496Z,74.50
2023-04-16T00:19:37.075Z,74.46
2023-04-16T00:20:40.427Z,74.44
2023-04-16T00:21:47.769Z,74.45
2023-04-16T00:22:56.631Z,74.46
2023-04-16T00:23:58.841Z,74.51
2023-04-16T00:26:22.956Z,74.53
2023-04-16T00:27:27.833Z,74.64
2023-04-16T00:28:29.924Z,74.65
2023-04-16T00:29:33.529Z,74.64
2023-04-16T00:30:38.069Z,74.62
2023-04-16T00:31:42.608Z,74.59
2023-04-16T00:32:47.307Z,74.60
2023-04-16T00:33:49.455Z,74.60
2023-04-16T00:34:53.363Z,74.60
2023-04-16T00:35:58.515Z,74.57
2023-04-16T00:37:06.559Z,74.53
2023-04-16T00:38:08.812Z,74.55
2023-04-16T00:39:11.236Z,74.54
2023-04-16T00:40:14.253Z,74.52
2023-04-16T00:41:20.058Z,74.54
2023-04-16T00:42:24.437Z,74.58
2023-04-16T00:43:28.528Z,74.60
2023-04-16T00:44:30.828Z,74.60
2023-04-16T00:45:33.223Z,74.56
2023-04-16T00:46:37.160Z,74.52
2023-04-16T00:47:39.391Z,74.56
2023-04-16T00:48:43.138Z,74.59
2023-04-16T00:49:47.433Z,74.57
2023-04-16T00:50:49.837Z,74.57
2023-04-16T00:51:52.126Z,74.59
2023-04-16T00:52:54.982Z,74.62
2023-04-16T00:53:57.563Z,74.61
2023-04-16T00:55:01.040Z,74.65
2023-04-16T00:56:04.549Z,74.62
2023-04-16T00:57:07.235Z,74.61
2023-04-16T00:58:09.498Z,74.60
2023-04-16T00:59:12.141Z,74.66
2023-04-16T01:00:15.094Z,74.60
2023-04-16T01:01:18.680Z,74.65
2023-04-16T01:02:21.144Z,74.64
2023-04-16T01:11:59.141Z,74.75
2023-04-16T01:18:16.900Z,74.62
2023-04-16T01:19:19.108Z,74.66
2023-04-16T01:20:21.331Z,74.67
2023-04-16T01:21:23.584Z,74.71
2023-04-16T01:22:30.054Z,74.74
2023-04-16T01:23:32.672Z,74.74
2023-04-16T01:24:34.940Z,74.71
2023-04-16T01:25:37.816Z,74.70
2023-04-16T01:26:40.150Z,74.72
2023-04-16T01:27:42.236Z,74.78
2023-04-16T01:28:45.520Z,74.76
2023-04-16T01:29:47.742Z,74.82
2023-04-16T01:30:53.038Z,74.79
2023-04-16T01:32:12.302Z,74.80
2023-04-16T01:33:18.537Z,74.80
2023-04-16T01:34:20.928Z,74.81
2023-04-16T01:35:26.419Z,74.80
2023-04-16T01:36:28.864Z,74.82
2023-04-16T01:37:31.024Z,74.85
2023-04-16T01:38:33.196Z,74.89
2023-04-16T01:39:35.442Z,74.91
2023-04-16T01:40:37.726Z,74.88
2023-04-16T01:41:42.898Z,74.87
2023-04-16T01:42:44.989Z,74.86
2023-04-16T01:43:47.668Z,74.87
2023-04-16T01:44:49.894Z,74.88
2023-04-16T01:45:54.239Z,74.90
2023-04-16T01:46:57.409Z,74.85
2023-04-16T01:48:01.794Z,74.89
2023-04-16T01:49:05.313Z,74.94
2023-04-16T01:50:09.219Z,74.93
2023-04-16T01:51:11.470Z,74.98
2023-04-16T01:52:14.292Z,74.97
2023-04-16T01:53:17.024Z,74.98
2023-04-16T01:54:19.085Z,75.04
2023-04-16T01:55:21.779Z,75.06
2023-04-16T01:56:25.121Z,75.08
2023-04-16T01:57:27.901Z,75.08
2023-04-16T01:58:32.463Z,75.08
2023-04-16T01:59:35.482Z,75.06
2023-04-16T02:00:38.617Z,75.08
2023-04-16T02:01:41.004Z,75.08
2023-04-16T02:02:43.291Z,75.10
2023-04-16T02:03:46.160Z,75.11
2023-04-16T02:04:48.528Z,75.12
2023-04-16T02:05:51.432Z,75.17
2023-04-16T02:06:53.781Z,75.17
2023-04-16T02:07:55.963Z,75.20
2023-04-16T02:08:58.239Z,75.15
2023-04-16T02:10:01.504Z,75.17
2023-04-16T02:11:04.369Z,75.22
2023-04-16T02:12:07.043Z,75.24
2023-04-16T02:13:09.596Z,75.17
2023-04-16T02:14:12.200Z,75.18
2023-04-16T02:15:14.482Z,75.16
2023-04-16T02:16:18.155Z,75.20
2023-04-16T02:17:22.476Z,75.20
2023-04-16T02:18:27.039Z,75.17
2023-04-16T02:19:29.365Z,75.16
2023-04-16T02:20:32.452Z,75.16
2023-04-16T02:21:35.621Z,75.14
2023-04-16T02:22:37.855Z,75.16
2023-04-16T02:23:40.133Z,75.14
2023-04-16T02:24:42.394Z,75.10
2023-04-16T02:25:46.508Z,75.12
2023-04-16T02:26:49.557Z,75.15
2023-04-16T02:27:53.525Z,75.19
2023-04-16T02:29:03.805Z,75.22
2023-04-16T02:30:09.779Z,75.18
2023-04-16T02:31:12.541Z,75.17
2023-04-16T02:32:17.170Z,75.23
2023-04-16T02:33:21.060Z,75.28
2023-04-16T02:34:25.212Z,75.25
2023-04-16T02:35:27.895Z,75.23
2023-04-16T02:36:30.504Z,75.25
2023-04-16T02:37:33.792Z,75.21
2023-04-16T02:38:36.163Z,75.23
2023-04-16T02:39:38.226Z,75.22
2023-04-16T02:40:40.826Z,75.22
2023-04-16T02:41:44.180Z,75.20
2023-04-16T02:42:46.505Z,75.20
2023-04-16T02:43:48.679Z,75.24
2023-04-16T02:44:53.811Z,75.26
2023-04-16T02:45:56.275Z,75.25
2023-04-16T02:46:58.581Z,75.21
2023-04-16T02:48:01.056Z,75.16
2023-04-16T02:49:03.486Z,75.18
2023-04-16T02:50:07.522Z,75.17
2023-04-16T02:51:09.757Z,75.16
2023-04-16T02:52:12.808Z,75.17
2023-04-16T02:53:16.035Z,75.18
2023-04-16T02:54:18.115Z,75.22
2023-04-16T02:55:20.339Z,75.22
2023-04-16T02:56:22.700Z,75.21
2023-04-16T02:57:25.543Z,75.21
2023-04-16T02:58:28.230Z,75.22
2023-04-16T02:59:30.490Z,75.26
2023-04-16T03:00:33.268Z,75.26
2023-04-16T03:01:35.531Z,75.20
2023-04-16T03:02:37.841Z,75.21
2023-04-16T03:03:40.607Z,75.17
2023-04-16T03:04:43.485Z,75.15
2023-04-16T03:05:45.973Z,75.16
2023-04-16T03:06:48.382Z,75.17
2023-04-16T03:07:50.568Z,75.20
2023-04-16T03:08:52.748Z,75.22
2023-04-16T03:09:55.016Z,75.14
2023-04-16T03:10:57.773Z,75.22
2023-04-16T03:12:00.062Z,75.21
2023-04-16T03:13:03.138Z,75.24
2023-04-16T03:14:05.352Z,75.21
2023-04-16T03:15:08.465Z,75.21
2023-04-16T03:16:11.696Z,75.17
2023-04-16T03:17:14.121Z,75.25
2023-04-16T03:18:16.688Z,75.30
2023-04-16T03:19:18.948Z,75.29
2023-04-16T03:20:21.709Z,75.28
2023-04-16T03:21:24.059Z,75.24
2023-04-16T03:22:26.099Z,75.24
2023-04-16T03:23:28.273Z,75.21
2023-04-16T03:24:30.448Z,75.20
2023-04-16T03:25:32.612Z,75.25
2023-04-16T03:26:35.637Z,75.24
2023-04-16T03:27:38.325Z,75.22
2023-04-16T03:28:40.484Z,75.23
2023-04-16T03:29:43.493Z,75.24
2023-04-16T03:30:53.588Z,75.28
2023-04-16T03:31:55.892Z,75.28
2023-04-16T03:32:58.426Z,75.32
2023-04-16T03:34:00.630Z,75.27
2023-04-16T03:35:04.079Z,75.30
2023-04-16T03:36:07.235Z,75.27
2023-04-16T03:37:09.817Z,75.27
2023-04-16T03:38:12.612Z,75.24
2023-04-16T03:39:15.606Z,75.24
2023-04-16T03:40:18.696Z,75.21
2023-04-16T03:41:20.969Z,75.25
2023-04-16T03:42:23.342Z,75.28
2023-04-16T03:43:27.084Z,75.27
2023-04-16T03:44:29.965Z,75.33
2023-04-16T03:45:32.325Z,75.34
2023-04-16T03:46:34.912Z,75.29
2023-04-16T03:47:37.353Z,75.33
2023-04-16T03:48:39.606Z,75.34
2023-04-16T03:49:41.684Z,75.36
2023-04-16T03:50:47.190Z,75.35
2023-04-16T03:51:50.178Z,75.31
2023-04-16T03:52:52.348Z,75.32
2023-04-16T03:53:54.540Z,75.35
2023-04-16T03:54:57.047Z,75.27
2023-04-16T03:56:01.499Z,75.30
2023-04-16T03:57:04.354Z,75.27
2023-04-16T03:58:07.442Z,75.30
2023-04-16T03:59:10.381Z,75.33
2023-04-16T04:00:13.517Z,75.29
2023-04-16T04:01:23.616Z,75.25
2023-04-16T04:02:27.021Z,75.22
2023-04-16T04:03:30.388Z,75.20
2023-04-16T04:04:33.027Z,75.24
2023-04-16T04:05:41.833Z,75.18
2023-04-16T04:06:46.067Z,75.13
2023-04-16T04:07:48.552Z,75.15
2023-04-16T04:08:51.343Z,75.20
2023-04-16T04:09:54.628Z,75.15
2023-04-16T04:10:57.050Z,75.15
2023-04-16T04:11:59.699Z,75.09
2023-04-16T04:13:04.456Z,75.05
2023-04-16T04:14:08.130Z,75.04
2023-04-16T04:15:11.170Z,75.07
2023-04-16T04:16:13.616Z,75.07
2023-04-16T04:17:15.849Z,75.08
2023-04-16T04:18:18.286Z,75.07
2023-04-16T04:19:20.481Z,75.08
2023-04-16T04:20:23.900Z,75.07
2023-04-16T04:21:28.441Z,75.07
2023-04-16T04:22:31.374Z,75.11
2023-04-16T04:23:34.804Z,75.06
2023-04-16T04:24:37.748Z,75.03
2023-04-16T04:25:40.085Z,75.00
2023-04-16T04:26:42.756Z,75.00
2023-04-16T04:27:45.809Z,74.96
2023-04-16T04:28:48.401Z,74.93
2023-04-16T04:29:52.827Z,74.96
2023-04-16T04:30:55.129Z,74.98
2023-04-16T04:31:57.521Z,75.05
2023-04-16T04:32:59.957Z,75.06
2023-04-16T04:34:02.305Z,75.05
2023-04-16T04:35:04.888Z,75.08
2023-04-16T04:36:07.716Z,75.09
2023-04-16T04:37:10.260Z,75.06
2023-04-16T04:38:16.076Z,75.03
2023-04-16T04:39:17.808Z,75.02
2023-04-16T04:40:20.194Z,75.02
2023-04-16T04:41:22.489Z,75.06
2023-04-16T04:42:24.700Z,75.10
2023-04-16T04:43:29.181Z,75.14
2023-04-16T04:44:31.457Z,75.16
2023-04-16T04:45:33.761Z,75.16
2023-04-16T04:46:36.588Z,75.15
2023-04-16T04:47:38.842Z,75.18
2023-04-16T04:48:41.026Z,75.24
2023-04-16T04:49:43.318Z,75.21
2023-04-16T04:50:46.504Z,75.24
2023-04-16T04:51:50.398Z,75.22
2023-04-16T04:52:52.726Z,75.18
2023-04-16T04:53:55.501Z,75.18
2023-04-16T04:54:57.780Z,75.23
2023-04-16T04:56:09.280Z,75.21
2023-04-16T04:57:04.303Z,75.21
2023-04-16T04:58:07.195Z,75.22
2023-04-16T04:59:10.317Z,75.22
2023-04-16T05:00:13.925Z,75.21
2023-04-16T05:01:27.014Z,75.22
2023-04-16T05:02:29.383Z,75.17
2023-04-16T05:04:43.456Z,75.15
2023-04-16T05:05:46.477Z,75.25
2023-04-16T05:06:50.276Z,75.27
2023-04-16T05:09:05.794Z,75.28
2023-04-16T05:10:08.999Z,75.32
2023-04-16T05:11:11.092Z,75.30
2023-04-16T05:12:13.679Z,75.27
2023-04-16T05:13:15.855Z,75.23
2023-04-16T05:14:18.096Z,75.21
2023-04-16T05:15:22.864Z,75.19
2023-04-16T05:16:25.310Z,75.18
2023-04-16T05:17:27.866Z,75.16
2023-04-16T05:18:30.139Z,75.14
2023-04-16T05:19:32.945Z,75.15
2023-04-16T05:20:35.406Z,75.12
2023-04-16T05:21:37.670Z,75.13
2023-04-16T05:22:39.916Z,75.16
2023-04-16T05:23:42.080Z,75.22
2023-04-16T05:24:44.528Z,75.16
2023-04-16T05:25:49.821Z,75.18
2023-04-16T05:26:52.547Z,75.22
2023-04-16T05:27:54.869Z,75.20
2023-04-16T05:28:57.283Z,75.18
2023-04-16T05:29:59.542Z,75.10
2023-04-16T05:31:02.348Z,75.10
2023-04-16T05:32:04.578Z,75.13
2023-04-16T05:33:06.771Z,75.14
2023-04-16T05:34:08.957Z,75.12
2023-04-16T05:35:11.357Z,75.08
2023-04-16T05:36:14.383Z,75.05
2023-04-16T05:37:16.513Z,74.99
2023-04-16T05:38:18.706Z,74.92
2023-04-16T05:39:20.864Z,74.88
2023-04-16T05:40:23.257Z,74.83
2023-04-16T05:41:25.755Z,74.83
2023-04-16T05:42:28.287Z,74.80
2023-04-16T05:43:30.839Z,74.72
2023-04-16T05:44:33.564Z,74.75
2023-04-16T05:45:35.654Z,74.83
2023-04-16T05:46:37.979Z,74.84
2023-04-16T05:47:40.321Z,74.83
2023-04-16T05:48:42.576Z,74.82
2023-04-16T05:49:45.723Z,74.80
2023-04-16T05:50:48.965Z,74.72
2023-04-16T05:51:51.593Z,74.68
2023-04-16T05:52:54.474Z,74.66
2023-04-16T05:53:56.657Z,74.66
2023-04-16T05:54:58.773Z,74.67
2023-04-16T05:56:01.515Z,74.67
2023-04-16T05:57:03.751Z,74.68
2023-04-16T05:58:08.995Z,74.67
2023-04-16T05:59:12.307Z,74.63
2023-04-16T06:00:15.500Z,74.60
2023-04-16T06:01:18.093Z,74.60
2023-04-16T06:02:20.498Z,74.59
2023-04-16T06:03:23.263Z,74.63
2023-04-16T06:04:25.815Z,74.56
2023-04-16T06:05:28.930Z,74.55
2023-04-16T06:06:31.943Z,74.56
2023-04-16T06:07:36.129Z,74.60
2023-04-16T06:08:38.288Z,74.60
2023-04-16T06:09:40.510Z,74.59
2023-04-16T06:10:42.851Z,74.63
2023-04-16T06:11:45.002Z,74.67
2023-04-16T06:12:47.425Z,74.68
2023-04-16T06:13:50.123Z,74.72
2023-04-16T06:14:53.216Z,74.76
2023-04-16T06:15:55.312Z,74.76
2023-04-16T06:16:57.575Z,74.80
2023-04-16T06:18:00.870Z,74.79
2023-04-16T06:19:03.621Z,74.80
2023-04-16T06:20:07.857Z,74.76
2023-04-16T06:21:10.320Z,74.79
2023-04-16T06:22:14.634Z,74.81
2023-04-16T06:23:16.761Z,74.84
2023-04-16T06:24:19.050Z,74.84
2023-04-16T06:25:21.341Z,74.86
2023-04-16T06:26:23.623Z,74.87
2023-04-16T06:27:25.721Z,74.88
2023-04-16T06:28:27.794Z,74.88
2023-04-16T06:29:40.634Z,74.83
2023-04-16T06:30:35.073Z,74.82
2023-04-16T06:31:37.919Z,74.82
2023-04-16T06:32:40.301Z,74.92
2023-04-16T06:33:42.647Z,74.94
2023-04-16T06:34:44.696Z,74.98
2023-04-16T06:35:46.771Z,74.95
2023-04-16T06:36:49.393Z,75.01
2023-04-16T06:37:52.766Z,75.00
2023-04-16T06:38:55.078Z,75.00
2023-04-16T06:39:57.299Z,75.00
2023-04-16T06:40:59.475Z,75.06
2023-04-16T06:42:02.034Z,75.06
2023-04-16T06:43:04.816Z,75.07
2023-04-16T06:44:07.012Z,75.03
2023-04-16T06:45:15.269Z,74.98
2023-04-16T06:46:18.038Z,74.95
2023-04-16T06:47:20.717Z,74.94
2023-04-16T06:48:23.357Z,74.92
2023-04-16T06:49:25.762Z,74.93
2023-04-16T06:50:28.393Z,74.92
2023-04-16T06:51:30.451Z,74.96
2023-04-16T06:52:33.208Z,75.01
2023-04-16T06:53:37.149Z,75.05
2023-04-16T06:54:39.618Z,75.11
2023-04-16T06:55:41.807Z,75.12
2023-04-16T06:56:44.001Z,75.16
2023-04-16T06:57:46.816Z,75.16
2023-04-16T06:58:50.421Z,75.17
2023-04-16T06:59:53.220Z,75.14
2023-04-16T07:00:55.417Z,75.08
2023-04-16T07:01:58.834Z,75.05
2023-04-16T07:03:02.159Z,75.02
2023-04-16T07:04:05.155Z,75.06
2023-04-16T07:05:07.824Z,75.07
2023-04-16T07:06:11.684Z,75.09
2023-04-16T07:07:13.806Z,75.14
2023-04-16T07:08:16.082Z,75.19
2023-04-16T07:09:18.417Z,75.17
2023-04-16T07:10:20.691Z,75.18
2023-04-16T07:11:22.876Z,75.16
2023-04-16T07:12:25.138Z,75.08
2023-04-16T07:13:28.701Z,75.04
2023-04-16T07:14:30.840Z,74.98
2023-04-16T07:15:33.304Z,75.01
2023-04-16T07:16:35.421Z,74.99
2023-04-16T07:17:37.688Z,74.97
2023-04-16T07:18:39.768Z,74.89
2023-04-16T07:19:42.392Z,74.85
2023-04-16T07:20:44.687Z,74.87
2023-04-16T07:21:47.387Z,74.91
2023-04-16T07:22:49.406Z,74.93
2023-04-16T07:23:51.495Z,74.92
2023-04-16T07:24:53.394Z,74.99
2023-04-16T07:25:55.800Z,74.92
2023-04-16T07:26:58.488Z,74.97
2023-04-16T07:28:01.147Z,74.97
2023-04-16T07:29:03.715Z,75.01
2023-04-16T07:30:08.240Z,75.00
2023-04-16T07:31:10.601Z,75.03
2023-04-16T07:32:14.819Z,75.01
2023-04-16T07:33:19.153Z,75.03
2023-04-16T07:34:22.542Z,75.05
2023-04-16T07:35:24.644Z,74.99
2023-04-16T07:36:26.902Z,75.04
2023-04-16T07:37:29.689Z,75.05
2023-04-16T07:38:31.947Z,75.09
2023-04-16T07:39:34.024Z,75.11
2023-04-16T07:40:37.613Z,75.08
2023-04-16T07:41:40.254Z,75.12
2023-04-16T07:42:42.708Z,75.07
2023-04-16T07:43:44.780Z,75.08
2023-04-16T07:44:46.931Z,75.12
2023-04-16T07:45:49.546Z,75.12
2023-04-16T07:46:52.507Z,75.11
2023-04-16T07:47:55.274Z,75.11
2023-04-16T07:48:57.421Z,75.10
2023-04-16T07:50:00.635Z,75.12
2023-04-16T07:51:02.992Z,75.17
2023-04-16T07:52:05.515Z,75.18
2023-04-16T07:53:08.047Z,75.17
2023-04-16T07:54:10.463Z,75.16
2023-04-16T07:55:12.806Z,75.13
2023-04-16T07:56:18.091Z,75.16
2023-04-16T07:57:20.568Z,75.14
2023-04-16T07:58:22.804Z,75.13
2023-04-16T07:59:24.879Z,75.09
2023-04-16T08:00:27.607Z,75.06
2023-04-16T08:01:29.654Z,75.01
2023-04-16T08:02:34.237Z,75.02
2023-04-16T08:03:37.313Z,75.04
2023-04-16T08:05:55.460Z,75.17
2023-04-16T08:07:03.198Z,75.29
2023-04-16T08:08:08.220Z,75.25
2023-04-16T08:09:11.089Z,75.17
2023-04-16T08:10:15.399Z,75.17
2023-04-16T08:11:17.917Z,75.14
2023-04-16T08:12:20.782Z,75.16
2023-04-16T08:13:27.838Z,75.19
2023-04-16T08:14:30.920Z,75.17
2023-04-16T08:15:33.546Z,75.17
2023-04-16T08:16:37.149Z,75.15
2023-04-16T08:17:40.041Z,75.18
2023-04-16T08:18:47.068Z,75.25
2023-04-16T08:19:51.052Z,75.31
2023-04-16T08:20:54.183Z,75.31
2023-04-16T08:21:56.589Z,75.33
2023-04-16T08:23:00.414Z,75.33
2023-04-16T08:25:19.242Z,75.35
2023-04-16T08:26:21.586Z,75.42
2023-04-16T08:27:26.881Z,75.43
2023-04-16T08:28:30.990Z,75.36
2023-04-16T08:29:33.358Z,75.29
2023-04-16T08:30:37.719Z,75.29
2023-04-16T08:31:41.355Z,75.26
2023-04-16T08:32:43.802Z,75.24
2023-04-16T08:33:45.938Z,75.25
2023-04-16T08:34:50.639Z,75.23
2023-04-16T08:35:53.109Z,75.23
2023-04-16T08:36:55.291Z,75.18
2023-04-16T08:37:57.561Z,75.14
2023-04-16T08:39:00.132Z,75.14
2023-04-16T08:40:03.151Z,75.17
2023-04-16T08:41:10.533Z,75.21
2023-04-16T08:43:38.743Z,75.20
2023-04-16T08:44:43.549Z,75.33
2023-04-16T08:45:47.161Z,75.26
2023-04-16T08:46:51.362Z,75.25
2023-04-16T08:47:53.707Z,75.23
2023-04-16T08:48:57.781Z,75.20
2023-04-16T08:50:01.231Z,75.19
2023-04-16T08:51:05.331Z,75.26
2023-04-16T08:52:09.231Z,75.28
2023-04-16T08:53:15.083Z,75.28
2023-04-16T08:54:26.808Z,75.30
2023-04-16T08:55:38.870Z,75.26
2023-04-16T08:56:43.318Z,75.21
2023-04-16T08:57:51.301Z,75.17
2023-04-16T08:58:54.911Z,75.16
2023-04-16T08:59:58.083Z,75.12
2023-04-16T09:01:03.561Z,75.09
2023-04-16T09:02:06.441Z,75.07
2023-04-16T09:03:09.355Z,75.11
2023-04-16T09:04:13.702Z,75.09
2023-04-16T09:05:16.795Z,75.09
2023-04-16T09:06:20.182Z,75.10
2023-04-16T09:07:24.510Z,75.07
2023-04-16T09:08:28.456Z,75.14
2023-04-16T09:09:33.407Z,75.13
2023-04-16T09:10:36.557Z,75.10
2023-04-16T09:11:38.622Z,75.09
2023-04-16T09:13:52.713Z,75.11
2023-04-16T09:14:56.908Z,75.19
2023-04-16T09:15:59.763Z,75.22
2023-04-16T09:17:04.231Z,75.19
2023-04-16T09:18:13.992Z,75.17
2023-04-16T09:19:17.984Z,75.25
2023-04-16T09:20:24.384Z,75.28
2023-04-16T09:21:28.843Z,75.33
2023-04-16T09:22:32.822Z,75.36
2023-04-16T09:23:35.247Z,75.33
2023-04-16T09:24:43.869Z,75.32
2023-04-16T09:25:52.520Z,75.34
2023-04-16T09:27:03.433Z,75.33
2023-04-16T09:28:05.694Z,75.26
2023-04-16T09:29:14.297Z,75.25
2023-04-16T09:30:41.970Z,75.29
2023-04-16T09:31:47.800Z,75.27
2023-04-16T09:32:53.663Z,75.16
2023-04-16T09:34:07.110Z,75.14
2023-04-16T09:35:10.060Z,75.08
2023-04-16T09:36:23.728Z,75.11
2023-04-16T09:37:29.431Z,75.09
2023-04-16T09:38:52.312Z,75.04
2023-04-16T09:40:03.030Z,74.98
2023-04-16T09:42:29.762Z,75.03
2023-04-16T09:43:32.785Z,75.18
2023-04-16T09:45:58.158Z,75.13
2023-04-16T09:47:04.031Z,75.17
2023-04-16T09:48:06.324Z,75.16
2023-04-16T09:49:16.005Z,75.19
2023-04-16T09:50:19.249Z,75.16
2023-04-16T09:51:21.494Z,75.11
2023-04-16T09:52:25.888Z,75.04
2023-04-16T09:53:31.594Z,74.98
2023-04-16T09:54:34.365Z,74.94
2023-04-16T09:55:40.104Z,74.89
2023-04-16T09:56:45.067Z,74.88
2023-04-16T09:57:47.733Z,74.92
2023-04-16T09:58:49.929Z,74.97
2023-04-16T09:59:53.378Z,74.99
2023-04-16T10:01:04.901Z,74.97
2023-04-16T10:02:15.216Z,74.98
2023-04-16T10:03:14.190Z,74.88
2023-04-16T10:04:17.694Z,74.83
2023-04-16T10:05:27.437Z,74.84
2023-04-16T10:06:33.279Z,74.88
2023-04-16T10:07:36.672Z,74.89
2023-04-16T10:08:47.864Z,74.86
2023-04-16T10:09:50.524Z,74.90
2023-04-16T10:10:55.050Z,74.81
2023-04-16T10:11:59.291Z,74.77
2023-04-16T10:13:03.381Z,74.72
2023-04-16T10:14:06.509Z,74.63
2023-04-16T10:15:15.843Z,74.59
2023-04-16T10:16:23.668Z,74.65
2023-04-16T10:17:27.030Z,74.65
2023-04-16T10:18:29.626Z,74.55
2023-04-16T10:19:34.659Z,74.55
2023-04-16T10:20:42.192Z,74.51
2023-04-16T10:21:45.659Z,74.46
2023-04-16T10:22:48.457Z,74.38
2023-04-16T10:23:51.822Z,74.30
2023-04-16T10:24:58.401Z,74.27
2023-04-16T10:26:02.329Z,74.26
2023-04-16T10:27:07.437Z,74.23
2023-04-16T10:28:10.049Z,74.20
2023-04-16T10:29:12.421Z,74.19
2023-04-16T10:30:18.542Z,74.16
2023-04-16T10:31:23.530Z,74.20
2023-04-16T10:32:26.481Z,74.28
2023-04-16T10:33:31.439Z,74.28
2023-04-16T10:34:34.866Z,74.27
2023-04-16T10:35:41.474Z,74.32
2023-04-16T10:36:49.461Z,74.31
2023-04-16T10:39:29.329Z,74.28
2023-04-16T10:40:31.805Z,74.33
2023-04-16T10:41:33.776Z,74.38
2023-04-16T10:42:37.848Z,74.36
2023-04-16T10:43:45.915Z,74.35
2023-04-16T10:44:52.564Z,74.39
2023-04-16T10:45:55.167Z,74.41
2023-04-16T10:47:00.017Z,74.36
2023-04-16T10:48:05.805Z,74.35
2023-04-16T10:49:19.342Z,74.31
2023-04-16T10:50:22.288Z,74.30
2023-04-16T10:51:34.247Z,74.27
2023-04-16T10:52:39.804Z,74.25
2023-04-16T10:53:41.948Z,74.22
2023-04-16T10:54:46.957Z,74.29
2023-04-16T10:57:29.524Z,74.27
2023-04-16T10:58:34.162Z,74.38
2023-04-16T10:59:38.284Z,74.35
2023-04-16T11:00:52.265Z,74.29
2023-04-16T11:01:56.147Z,74.24
2023-04-16T11:02:59.701Z,74.14
2023-04-16T11:04:26.829Z,74.05
2023-04-16T11:05:33.485Z,74.04
2023-04-16T11:06:37.049Z,73.99
2023-04-16T11:07:42.870Z,73.99
2023-04-16T11:08:54.110Z,74.04
2023-04-16T11:10:00.080Z,74.01
2023-04-16T11:11:05.104Z,73.96
2023-04-16T11:12:08.993Z,73.92
2023-04-16T11:13:12.439Z,73.92
2023-04-16T11:14:15.155Z,73.91
2023-04-16T11:15:17.395Z,73.95
2023-04-16T11:16:19.734Z,74.07
2023-04-16T11:17:21.966Z,74.23
2023-04-16T11:18:24.612Z,74.46
2023-04-16T11:19:26.677Z,74.64
2023-04-16T11:20:29.395Z,74.80
2023-04-16T11:21:31.814Z,74.81
2023-04-16T11:22:38.102Z,74.72
2023-04-16T11:23:53.412Z,74.57
2023-04-16T11:24:56.859Z,74.42
2023-04-16T11:25:59.519Z,74.26
2023-04-16T11:27:04.426Z,74.10
2023-04-16T11:28:07.273Z,74.01
2023-04-16T11:29:17.059Z,73.97
2023-04-16T11:30:28.049Z,73.90
2023-04-16T11:31:30.268Z,73.96
2023-04-16T11:32:34.578Z,73.95
2023-04-16T11:33:38.268Z,73.93
2023-04-16T11:34:45.169Z,73.89
2023-04-16T11:35:56.213Z,73.88
2023-04-16T11:36:58.847Z,73.84
2023-04-16T11:38:01.257Z,73.80
2023-04-16T11:39:04.652Z,73.77
2023-04-16T11:40:08.962Z,73.76
2023-04-16T11:41:12.232Z,73.76
2023-04-16T11:42:19.561Z,73.76
2023-04-16T11:43:22.118Z,73.73
2023-04-16T11:44:25.808Z,73.63
2023-04-16T11:45:28.081Z,73.60
2023-04-16T11:46:39.620Z,73.60
2023-04-16T11:47:53.223Z,73.68
2023-04-16T11:48:55.548Z,73.69
2023-04-16T11:50:16.936Z,73.67
2023-04-16T11:51:21.915Z,73.60
2023-04-16T11:52:30.528Z,73.55
2023-04-16T11:53:38.290Z,73.51
2023-04-16T11:54:42.342Z,73.51
2023-04-16T11:55:48.765Z,73.56
2023-04-16T11:56:55.998Z,73.60
2023-04-16T11:58:03.911Z,73.59
2023-04-16T11:59:27.467Z,73.51
2023-04-16T12:00:39.454Z,73.44
2023-04-16T12:01:51.178Z,73.44
2023-04-16T12:02:54.603Z,73.47
2023-04-16T12:04:01.785Z,73.50
2023-04-16T12:05:10.840Z,73.51
2023-04-16T12:06:14.170Z,73.55
2023-04-16T12:07:19.590Z,73.55
2023-04-16T12:08:31.748Z,73.52
2023-04-16T12:09:39.536Z,73.56
2023-04-16T12:11:02.070Z,73.59
2023-04-16T12:15:53.197Z,73.81
2023-04-16T12:17:01.711Z,73.81
2023-04-16T12:18:08.116Z,73.79
2023-04-16T12:19:13.972Z,73.72
2023-04-16T12:20:17.954Z,73.59
2023-04-16T12:21:21.730Z,73.53
2023-04-16T12:22:28.869Z,73.50
2023-04-16T12:23:33.692Z,73.47
2023-04-16T12:24:35.986Z,73.47
2023-04-16T12:25:40.086Z,73.45
2023-04-16T12:26:44.532Z,73.44
2023-04-16T12:27:53.708Z,73.52
2023-04-16T12:29:00.250Z,73.48
2023-04-16T12:30:07.306Z,73.48
2023-04-16T12:31:09.686Z,73.50
2023-04-16T12:32:22.995Z,73.46
2023-04-16T12:33:36.160Z,73.42
2023-04-16T12:34:48.066Z,73.35
2023-04-16T12:35:47.112Z,73.34
2023-04-16T12:38:03.132Z,73.34
2023-04-16T12:39:06.463Z,73.38
2023-04-16T12:40:11.416Z,73.37
2023-04-16T12:41:13.823Z,73.36
2023-04-16T12:42:16.182Z,73.40
2023-04-16T12:43:20.851Z,73.40
2023-04-16T12:45:32.234Z,73.41
2023-04-16T12:47:46.844Z,73.26
2023-04-16T12:48:49.094Z,73.22
2023-04-16T12:49:51.739Z,73.17
2023-04-16T12:50:54.524Z,73.11
2023-04-16T12:51:57.948Z,73.04
2023-04-16T12:53:00.910Z,72.97
2023-04-16T12:54:04.957Z,72.89
2023-04-16T12:55:07.545Z,72.84
2023-04-16T12:56:10.769Z,72.82
2023-04-16T12:57:13.455Z,72.81
2023-04-16T12:58:15.558Z,72.73
2023-04-16T12:59:17.766Z,72.77
2023-04-16T13:00:21.516Z,72.77
2023-04-16T13:01:27.303Z,72.80
2023-04-16T13:02:29.773Z,72.84
2023-04-16T13:03:32.158Z,72.93
2023-04-16T13:04:34.559Z,72.95
2023-04-16T13:05:37.833Z,72.93
2023-04-16T13:06:42.035Z,72.93
2023-04-16T13:07:44.988Z,72.93
2023-04-16T13:08:49.721Z,74.15
2023-04-16T13:09:52.103Z,75.41
2023-04-16T13:10:55.324Z,76.05
2023-04-16T13:11:57.624Z,75.78
2023-04-16T13:13:00.546Z,75.08
2023-04-16T13:14:03.975Z,74.41
2023-04-16T13:15:09.016Z,73.82
2023-04-16T13:16:12.157Z,73.41
2023-04-16T13:17:21.937Z,73.07
2023-04-16T13:18:27.393Z,72.82
2023-04-16T13:19:31.190Z,72.66
2023-04-16T13:20:33.934Z,72.54
2023-04-16T13:21:42.977Z,72.39
2023-04-16T13:22:46.996Z,72.15
2023-04-16T13:23:51.231Z,72.09
2023-04-16T13:24:53.494Z,71.99
2023-04-16T13:25:55.991Z,71.89
2023-04-16T13:26:58.168Z,71.85
2023-04-16T13:28:00.362Z,71.75
2023-04-16T13:29:02.644Z,71.74
2023-04-16T13:30:06.612Z,71.71
2023-04-16T13:31:09.309Z,71.73
2023-04-16T13:32:11.622Z,71.77
2023-04-16T13:33:13.751Z,71.74
2023-04-16T13:34:15.876Z,71.79
2023-04-16T13:35:19.116Z,71.86
2023-04-16T13:36:21.366Z,71.91
2023-04-16T13:37:25.469Z,71.92
2023-04-16T13:38:27.579Z,72.00
2023-04-16T13:39:31.409Z,72.00
2023-04-16T13:40:34.130Z,72.00
2023-04-16T13:41:41.002Z,71.98
2023-04-16T13:42:44.722Z,71.92
2023-04-16T13:43:50.683Z,71.82
2023-04-16T13:44:55.805Z,71.87
2023-04-16T13:45:59.902Z,71.91
2023-04-16T13:47:02.408Z,71.97
2023-04-16T13:48:05.109Z,72.03
2023-04-16T13:49:11.046Z,72.12
2023-04-16T13:50:16.725Z,72.13
2023-04-16T13:51:18.938Z,72.22
2023-04-16T13:52:25.071Z,72.31
2023-04-16T13:53:28.665Z,72.43
2023-04-16T13:54:30.930Z,72.52
2023-04-16T13:55:33.036Z,72.64
2023-04-16T13:56:35.741Z,72.67
2023-04-16T13:57:37.807Z,72.66
2023-04-16T13:58:42.635Z,72.64
2023-04-16T13:59:45.271Z,72.58
2023-04-16T14:00:47.651Z,72.50
2023-04-16T14:01:51.362Z,72.47
2023-04-16T14:02:56.200Z,72.37
2023-04-16T14:04:01.413Z,72.40
2023-04-16T14:05:04.444Z,72.33
2023-04-16T14:06:08.094Z,72.34
2023-04-16T14:07:18.503Z,72.34
2023-04-16T14:08:22.530Z,72.35
2023-04-16T14:09:26.892Z,72.39
2023-04-16T14:10:31.059Z,72.41
2023-04-16T14:11:34.988Z,72.39
2023-04-16T14:12:39.312Z,72.43
2023-04-16T14:13:43.153Z,72.47
2023-04-16T14:14:49.189Z,72.50
2023-04-16T14:15:55.860Z,72.47
2023-04-16T14:16:59.235Z,72.51
2023-04-16T14:18:02.209Z,72.48
2023-04-16T14:19:04.940Z,72.46